Terminal Aerodrome Forecast
Issued by NWS

Home | Current Version | Previous Version | Graphics & Text | Print | Product List | Glossary On
Versions: 1 2 3 4 5 6 7 8 9 10 11 12 13 14 15
000
FTUS43 KBIS 091700
TAFMOT
TAF
KMOT 091740Z 0918/1018 13006KT P6SM SCT060
     FM100400 16007KT 6SM FU SKC
     FM101600 16013G22KT P6SM SCT120=

USA.gov is the U.S. government's official web portal to all federal, state and local government web resources and services.